createdAt,value
2022-11-16T00:01:22.753Z,61.33
2022-11-16T00:04:26.496Z,66.33
2022-11-16T00:07:30.497Z,63.00
2022-11-16T00:10:34.539Z,59.33
2022-11-16T00:13:41.273Z,61.00
2022-11-16T00:16:46.127Z,60.33
2022-11-16T00:19:50.142Z,64.33
2022-11-16T00:22:53.536Z,52.33
2022-11-16T00:25:57.308Z,55.00
2022-11-16T00:29:00.837Z,59.00
2022-11-16T00:32:06.588Z,63.00
2022-11-16T00:35:11.210Z,68.33
2022-11-16T00:38:15.359Z,61.67
2022-11-16T00:41:20.384Z,57.00
2022-11-16T00:44:24.226Z,60.33
2022-11-16T00:47:29.589Z,59.33
2022-11-16T00:50:33.597Z,57.33
2022-11-16T00:53:37.660Z,55.33
2022-11-16T00:56:41.921Z,63.00
2022-11-16T00:59:45.462Z,64.33
2022-11-16T01:02:52.622Z,53.67
2022-11-16T01:06:01.903Z,59.67
2022-11-16T01:09:05.818Z,59.00
2022-11-16T01:12:10.936Z,55.33
2022-11-16T01:15:15.278Z,57.67
2022-11-16T01:18:20.149Z,60.33
2022-11-16T01:21:24.922Z,51.33
2022-11-16T01:24:29.045Z,57.67
2022-11-16T01:27:33.083Z,62.00
2022-11-16T01:30:38.406Z,68.67
2022-11-16T01:33:47.656Z,59.67
2022-11-16T01:36:57.702Z,58.33
2022-11-16T01:40:05.506Z,53.33
2022-11-16T01:43:17.473Z,51.67
2022-11-16T01:46:23.373Z,56.00
2022-11-16T01:49:36.320Z,60.00
2022-11-16T01:52:43.850Z,54.67
2022-11-16T01:55:49.771Z,48.00
2022-11-16T01:59:18.004Z,58.33
2022-11-16T02:02:22.454Z,61.00
2022-11-16T02:05:47.737Z,57.00
2022-11-16T02:09:24.767Z,42.33
2022-11-16T02:13:01.084Z,52.00
2022-11-16T02:16:28.243Z,67.33
2022-11-16T02:20:01.826Z,67.67
2022-11-16T02:23:45.081Z,62.00
2022-11-16T02:27:27.272Z,65.33
2022-11-16T02:30:33.394Z,59.00
2022-11-16T02:33:42.234Z,57.00
2022-11-16T02:36:50.774Z,48.00
2022-11-16T02:39:59.464Z,55.00
2022-11-16T02:43:08.621Z,57.67
2022-11-16T02:46:20.690Z,56.67
2022-11-16T02:49:26.671Z,54.33
2022-11-16T02:52:31.045Z,57.33
2022-11-16T02:55:37.333Z,50.67
2022-11-16T02:58:41.438Z,53.67
2022-11-16T03:01:53.453Z,53.00
2022-11-16T03:05:02.633Z,56.33
2022-11-16T03:08:19.593Z,50.00
2022-11-16T03:11:41.294Z,52.00
2022-11-16T03:14:50.356Z,48.67
2022-11-16T03:17:56.275Z,54.67
2022-11-16T03:21:11.191Z,57.00
2022-11-16T03:24:15.802Z,50.00
2022-11-16T03:27:31.369Z,40.67
2022-11-16T03:30:41.638Z,40.00
2022-11-16T03:33:51.649Z,47.33
2022-11-16T03:37:15.092Z,53.00
2022-11-16T03:40:21.602Z,51.00
2022-11-16T03:43:28.667Z,55.33
2022-11-16T03:46:32.305Z,52.33
2022-11-16T03:49:55.978Z,53.00
2022-11-16T03:53:00.906Z,46.33
2022-11-16T03:56:05.458Z,50.67
2022-11-16T03:59:09.079Z,52.67
2022-11-16T04:02:13.052Z,47.67
2022-11-16T04:05:36.154Z,49.67
2022-11-16T04:08:58.160Z,47.33
2022-11-16T04:12:19.205Z,48.00
2022-11-16T04:15:41.554Z,47.67
2022-11-16T04:19:02.983Z,45.67
2022-11-16T04:22:34.442Z,47.33
2022-11-16T04:25:41.284Z,52.33
2022-11-16T04:28:50.482Z,46.00
2022-11-16T04:32:11.336Z,50.00
2022-11-16T04:35:32.532Z,47.67
2022-11-16T04:38:37.902Z,66.33
2022-11-16T04:41:59.231Z,61.67
2022-11-16T04:45:23.861Z,59.67
2022-11-16T04:48:29.870Z,68.00
2022-11-16T04:51:33.552Z,63.67
2022-11-16T04:54:39.223Z,96.75
2022-11-16T04:57:43.230Z,58.00
2022-11-16T05:00:50.235Z,56.67
2022-11-16T05:03:54.237Z,57.67
2022-11-16T05:06:58.750Z,56.00
2022-11-16T05:10:05.459Z,48.33
2022-11-16T05:13:09.602Z,48.00
2022-11-16T05:16:13.166Z,50.67
2022-11-16T05:19:34.399Z,48.25
2022-11-16T05:22:38.418Z,47.50
2022-11-16T05:25:44.541Z,52.25
2022-11-16T05:28:48.039Z,54.00
2022-11-16T05:31:51.899Z,49.33
2022-11-16T05:34:55.796Z,55.67
2022-11-16T05:38:01.310Z,50.00
2022-11-16T05:41:08.107Z,52.67
2022-11-16T05:44:12.169Z,47.00
2022-11-16T05:47:16.171Z,53.33
2022-11-16T05:50:20.332Z,55.33
2022-11-16T05:53:36.479Z,55.33
2022-11-16T05:56:43.377Z,48.00
2022-11-16T05:59:46.886Z,56.33
2022-11-16T06:02:51.587Z,53.00
2022-11-16T06:06:00.111Z,55.33
2022-11-16T06:09:06.164Z,55.00
2022-11-16T06:12:12.294Z,129.50
2022-11-16T06:15:16.354Z,70.00
2022-11-16T06:18:19.987Z,67.00
2022-11-16T06:21:25.057Z,76.00
2022-11-16T06:24:29.872Z,54.33
2022-11-16T06:27:36.130Z,59.33
2022-11-16T06:30:40.650Z,111.50
2022-11-16T06:33:45.464Z,71.33
2022-11-16T06:36:57.330Z,86.50
2022-11-16T06:40:01.562Z,84.00
2022-11-16T06:43:10.477Z,81.00
2022-11-16T06:46:14.813Z,88.25
2022-11-16T06:49:18.664Z,74.67
2022-11-16T06:52:23.374Z,69.33
2022-11-16T06:55:27.382Z,90.75
2022-11-16T06:58:33.789Z,104.75
2022-11-16T07:01:37.738Z,76.00
2022-11-16T07:04:47.660Z,74.50
2022-11-16T07:07:55.399Z,100.00
2022-11-16T07:11:04.452Z,121.50
2022-11-16T07:14:11.832Z,101.00
2022-11-16T07:17:15.923Z,82.75
2022-11-16T07:20:19.558Z,84.67
2022-11-16T07:23:24.266Z,90.50
2022-11-16T07:26:28.920Z,37.75
2022-11-16T07:29:43.645Z,97.00
2022-11-16T07:33:05.699Z,102.50
2022-11-16T07:36:44.666Z,99.75
2022-11-16T07:39:48.197Z,89.50
2022-11-16T07:42:52.630Z,94.75
2022-11-16T07:49:49.025Z,83.00
2022-11-16T07:52:56.114Z,89.33
2022-11-16T07:55:59.874Z,86.00
2022-11-16T07:59:06.090Z,86.00
2022-11-16T08:02:15.375Z,100.25
2022-11-16T08:05:20.486Z,105.25
2022-11-16T08:08:26.447Z,93.25
2022-11-16T08:11:29.909Z,101.00
2022-11-16T08:14:33.882Z,82.67
2022-11-16T08:17:39.557Z,90.00
2022-11-16T08:20:46.644Z,160.50
2022-11-16T08:23:55.261Z,139.00
2022-11-16T08:27:02.328Z,120.25
2022-11-16T08:30:09.884Z,132.50
2022-11-16T08:33:17.925Z,52.00
2022-11-16T08:36:22.050Z,128.00
2022-11-16T08:39:26.501Z,125.75
2022-11-16T08:42:30.192Z,125.00
2022-11-16T08:45:34.584Z,120.25
2022-11-16T08:48:39.752Z,155.50
2022-11-16T08:51:44.194Z,143.50
2022-11-16T08:54:47.879Z,133.00
2022-11-16T08:57:53.542Z,136.25
2022-11-16T09:00:57.111Z,180.00
2022-11-16T09:04:02.293Z,154.00
2022-11-16T09:07:05.667Z,154.00
2022-11-16T09:10:10.423Z,127.50
2022-11-16T09:13:13.889Z,107.00
2022-11-16T09:16:20.709Z,87.00
2022-11-16T09:19:25.639Z,26.75
2022-11-16T09:22:29.652Z,102.50
2022-11-16T09:25:33.082Z,100.25
2022-11-16T09:28:37.151Z,113.50
2022-11-16T09:31:40.748Z,121.50
2022-11-16T09:34:46.439Z,128.25
2022-11-16T09:37:50.787Z,137.00
2022-11-16T09:40:59.031Z,129.25
2022-11-16T09:44:13.578Z,122.75
2022-11-16T09:47:21.963Z,127.00
2022-11-16T09:50:42.677Z,134.75
2022-11-16T09:53:50.595Z,110.75
2022-11-16T09:57:00.664Z,134.75
2022-11-16T10:00:15.634Z,140.00
2022-11-16T10:03:20.505Z,138.75
2022-11-16T10:06:36.981Z,131.50
2022-11-16T10:09:41.384Z,131.50
2022-11-16T10:12:51.592Z,124.50
2022-11-16T10:16:08.179Z,120.50
2022-11-16T10:19:22.739Z,120.25
2022-11-16T10:22:46.254Z,126.75
2022-11-16T10:25:55.863Z,103.50
2022-11-16T10:29:28.152Z,121.00
2022-11-16T10:32:38.190Z,123.75
2022-11-16T10:35:47.412Z,92.75
2022-11-16T10:38:53.383Z,98.00
2022-11-16T10:42:07.238Z,99.00
2022-11-16T10:45:20.753Z,120.75
2022-11-16T10:48:37.542Z,132.00
2022-11-16T10:51:41.970Z,127.00
2022-11-16T10:54:47.089Z,139.75
2022-11-16T10:57:59.257Z,117.00
2022-11-16T11:01:03.076Z,149.75
2022-11-16T11:04:16.198Z,129.00
2022-11-16T11:07:30.599Z,130.25
2022-11-16T11:10:37.674Z,127.50
2022-11-16T11:14:10.185Z,122.50
2022-11-16T11:17:19.134Z,109.25
2022-11-16T11:20:25.043Z,115.75
2022-11-16T11:23:29.217Z,111.50
2022-11-16T11:26:37.630Z,105.75
2022-11-16T11:29:44.222Z,115.25
2022-11-16T11:32:48.481Z,100.75
2022-11-16T11:36:01.855Z,104.75
2022-11-16T11:39:08.484Z,114.25
2022-11-16T11:42:24.545Z,128.00
2022-11-16T11:45:36.431Z,139.00
2022-11-16T11:48:49.394Z,147.25
2022-11-16T11:51:55.958Z,142.75
2022-11-16T11:55:01.541Z,147.25
2022-11-16T11:58:08.105Z,153.75
2022-11-16T12:01:35.467Z,149.25
2022-11-16T12:05:24.419Z,145.50
2022-11-16T12:08:48.062Z,124.75
2022-11-16T12:12:02.650Z,98.25
2022-11-16T12:15:28.103Z,84.00
2022-11-16T12:18:46.440Z,77.00
2022-11-16T12:22:04.330Z,74.00
2022-11-16T12:25:21.970Z,80.00
2022-11-16T12:28:44.918Z,73.33
2022-11-16T12:32:07.425Z,85.33
2022-11-16T12:35:33.058Z,67.00
2022-11-16T12:38:55.244Z,68.67
2022-11-16T12:42:26.905Z,73.33
2022-11-16T12:45:50.632Z,65.67
2022-11-16T12:49:27.696Z,66.33
2022-11-16T12:53:05.435Z,59.00
2022-11-16T12:56:21.091Z,55.33
2022-11-16T12:59:45.065Z,61.50
2022-11-16T13:03:11.526Z,62.00
2022-11-16T13:06:21.194Z,52.00
2022-11-16T13:09:28.848Z,46.00
2022-11-16T13:12:33.786Z,49.50
2022-11-16T13:15:40.560Z,48.50
2022-11-16T13:18:45.410Z,43.50
2022-11-16T13:21:56.270Z,50.00
2022-11-16T13:25:05.920Z,49.00
2022-11-16T13:28:23.055Z,48.00
2022-11-16T13:31:34.686Z,52.25
2022-11-16T13:34:40.896Z,50.50
2022-11-16T13:37:49.764Z,48.50
2022-11-16T13:40:53.527Z,48.75
2022-11-16T13:43:57.462Z,49.00
2022-11-16T13:47:06.059Z,63.33
2022-11-16T13:50:19.953Z,58.75
2022-11-16T13:54:24.980Z,60.00
2022-11-16T13:56:53.031Z,54.00
2022-11-16T14:00:11.626Z,59.33
2022-11-16T14:03:31.664Z,63.00
2022-11-16T14:06:59.410Z,64.00
2022-11-16T14:10:07.932Z,58.67
2022-11-16T14:13:39.363Z,70.67
2022-11-16T14:16:48.900Z,59.00
2022-11-16T14:19:57.742Z,63.67
2022-11-16T14:23:36.922Z,62.00
2022-11-16T14:26:58.341Z,62.67
2022-11-16T14:30:15.138Z,60.33
2022-11-16T14:33:31.307Z,69.33
2022-11-16T14:36:42.650Z,63.00
2022-11-16T14:39:47.047Z,49.00
2022-11-16T14:43:15.273Z,61.67
2022-11-16T14:46:24.208Z,59.00
2022-11-16T14:49:29.190Z,64.00
2022-11-16T14:52:39.707Z,62.67
2022-11-16T14:55:44.959Z,59.25
2022-11-16T14:58:54.519Z,67.33
2022-11-16T15:01:58.300Z,74.67
2022-11-16T15:05:02.329Z,83.67
2022-11-16T15:08:18.499Z,80.67
2022-11-16T15:11:47.361Z,86.33
2022-11-16T15:14:55.390Z,84.33
2022-11-16T15:18:15.095Z,94.33
2022-11-16T15:21:23.590Z,92.00
2022-11-16T15:24:31.072Z,89.33
2022-11-16T15:27:38.175Z,78.00
2022-11-16T15:30:46.849Z,93.33
2022-11-16T15:33:51.114Z,98.00
2022-11-16T15:36:55.152Z,96.67
2022-11-16T15:40:00.221Z,90.33
2022-11-16T15:43:07.003Z,106.25
2022-11-16T15:49:45.382Z,110.50
2022-11-16T15:52:53.099Z,64.33
2022-11-16T15:55:57.009Z,66.33
2022-11-16T15:59:10.635Z,81.67
2022-11-16T16:02:20.142Z,82.33
2022-11-16T16:05:34.831Z,121.50
2022-11-16T16:08:41.751Z,127.75
2022-11-16T16:11:45.263Z,120.25
2022-11-16T16:14:50.205Z,134.00
2022-11-16T16:17:55.665Z,107.25
2022-11-16T16:20:59.542Z,125.00
2022-11-16T16:24:03.839Z,115.00
2022-11-16T16:27:13.294Z,110.75
2022-11-16T16:30:18.088Z,100.50
2022-11-16T16:33:28.552Z,99.00
2022-11-16T16:36:32.183Z,118.75
2022-11-16T16:39:36.246Z,106.25
2022-11-16T16:42:40.935Z,91.67
2022-11-16T16:45:45.527Z,86.00
2022-11-16T16:48:50.218Z,84.67
2022-11-16T16:51:54.372Z,89.00
2022-11-16T16:54:57.784Z,86.67
2022-11-16T16:58:03.156Z,88.33
2022-11-16T17:01:07.236Z,86.00
2022-11-16T17:04:12.329Z,80.00
2022-11-16T17:07:16.264Z,79.33
2022-11-16T17:10:21.301Z,87.00
2022-11-16T17:13:24.715Z,86.67
2022-11-16T17:16:28.357Z,80.33
2022-11-16T17:19:33.245Z,89.33
2022-11-16T17:22:37.563Z,108.25
2022-11-16T17:25:41.000Z,108.25
2022-11-16T17:28:44.722Z,116.00
2022-11-16T17:31:48.896Z,124.25
2022-11-16T17:34:54.126Z,115.25
2022-11-16T17:37:58.717Z,110.75
2022-11-16T17:41:06.936Z,99.25
2022-11-16T17:44:10.271Z,74.33
2022-11-16T17:47:13.935Z,65.00
2022-11-16T17:50:18.755Z,67.33
2022-11-16T17:53:22.418Z,75.33
2022-11-16T17:56:28.062Z,78.00
2022-11-16T17:59:31.714Z,83.00
2022-11-16T18:02:35.163Z,96.67
2022-11-16T18:05:40.328Z,104.25
2022-11-16T18:08:44.933Z,108.75
2022-11-16T18:11:48.696Z,107.50
2022-11-16T18:15:21.334Z,117.75
2022-11-16T18:18:18.022Z,123.50
2022-11-16T18:21:23.145Z,111.00
2022-11-16T18:24:27.215Z,102.00
2022-11-16T18:27:30.886Z,101.00
2022-11-16T18:30:34.710Z,87.75
2022-11-16T18:33:39.412Z,74.67
2022-11-16T18:36:46.390Z,31.67
2022-11-16T18:39:50.086Z,109.50
2022-11-16T18:42:54.024Z,96.33
2022-11-16T18:45:58.157Z,102.00
2022-11-16T18:49:02.450Z,95.75
2022-11-16T18:52:07.561Z,112.75
2022-11-16T18:55:11.612Z,110.75
2022-11-16T18:58:43.374Z,107.25
2022-11-16T19:01:38.779Z,101.75
2022-11-16T19:04:42.730Z,97.25
2022-11-16T19:07:47.835Z,119.00
2022-11-16T19:10:51.213Z,105.25
2022-11-16T19:13:57.143Z,110.25
2022-11-16T19:17:00.977Z,121.50
2022-11-16T19:20:05.047Z,124.00
2022-11-16T19:23:09.838Z,145.25
2022-11-16T19:26:14.954Z,130.75
2022-11-16T19:29:18.333Z,101.50
2022-11-16T19:32:22.044Z,121.25
2022-11-16T19:35:25.390Z,109.75
2022-11-16T19:38:31.918Z,115.25
2022-11-16T19:41:35.534Z,121.25
2022-11-16T19:44:39.332Z,120.25
2022-11-16T19:47:42.733Z,114.00
2022-11-16T19:50:46.498Z,120.00
2022-11-16T19:53:51.645Z,155.50
2022-11-16T19:56:55.511Z,127.50
2022-11-16T19:59:58.971Z,79.00
2022-11-16T20:03:02.674Z,123.50
2022-11-16T20:06:08.602Z,104.25
2022-11-16T20:09:13.697Z,109.25
2022-11-16T20:12:17.067Z,99.25
2022-11-16T20:15:22.658Z,97.50
2022-11-16T20:18:26.014Z,106.75
2022-11-16T20:21:33.170Z,123.25
2022-11-16T20:24:37.941Z,129.75
2022-11-16T20:27:41.576Z,98.00
2022-11-16T20:30:47.208Z,87.33
2022-11-16T20:33:52.541Z,72.67
2022-11-16T20:36:56.189Z,89.67
2022-11-16T20:40:02.351Z,88.67
2022-11-16T20:43:09.142Z,87.67
2022-11-16T20:46:15.211Z,94.00
2022-11-16T20:49:18.596Z,95.00
2022-11-16T20:52:22.375Z,92.33
2022-11-16T20:55:27.100Z,83.00
2022-11-16T20:58:31.239Z,93.00
2022-11-16T21:01:35.167Z,87.33
2022-11-16T21:04:38.952Z,95.00
2022-11-16T21:07:43.915Z,103.25
2022-11-16T21:10:49.925Z,103.50
2022-11-16T21:14:11.612Z,99.25
2022-11-16T21:17:15.242Z,99.00
2022-11-16T21:20:28.147Z,111.25
2022-11-16T21:23:34.645Z,107.50
2022-11-16T21:26:39.843Z,97.75
2022-11-16T21:29:43.620Z,116.75
2022-11-16T21:32:47.277Z,127.75
2022-11-16T21:35:53.077Z,115.50
2022-11-16T21:38:59.264Z,101.25
2022-11-16T21:42:05.675Z,108.75
2022-11-16T21:45:11.020Z,95.25
2022-11-16T21:48:15.499Z,117.50
2022-11-16T21:51:20.375Z,97.00
2022-11-16T21:54:45.056Z,100.25
2022-11-16T21:57:50.256Z,79.33
2022-11-16T22:00:56.471Z,66.33
2022-11-16T22:04:17.985Z,66.67
2022-11-16T22:07:34.325Z,70.00
2022-11-16T22:10:38.883Z,72.67
2022-11-16T22:13:45.159Z,63.67
2022-11-16T22:16:49.057Z,73.00
2022-11-16T22:19:53.865Z,64.33
2022-11-16T22:22:57.793Z,75.33
2022-11-16T22:26:04.020Z,76.33
2022-11-16T22:29:09.906Z,74.00
2022-11-16T22:32:15.095Z,70.00
2022-11-16T22:35:19.611Z,76.00
2022-11-16T22:38:24.708Z,78.67
2022-11-16T22:41:30.891Z,78.00
2022-11-16T22:44:36.637Z,79.67
2022-11-16T22:47:42.010Z,77.33
2022-11-16T22:50:46.311Z,78.00
2022-11-16T22:53:53.906Z,73.67
2022-11-16T22:57:17.223Z,59.67
2022-11-16T23:00:22.839Z,90.33
2022-11-16T23:03:27.491Z,86.67
2022-11-16T23:06:31.270Z,79.67
2022-11-16T23:09:36.314Z,71.00
2022-11-16T23:12:57.962Z,72.67
2022-11-16T23:16:07.377Z,76.00
2022-11-16T23:19:27.485Z,72.67
2022-11-16T23:22:49.668Z,76.33
2022-11-16T23:26:11.732Z,63.33
2022-11-16T23:29:16.988Z,71.67
2022-11-16T23:32:22.441Z,77.67
2022-11-16T23:35:26.760Z,68.67
2022-11-16T23:38:30.939Z,68.67
2022-11-16T23:41:52.923Z,73.00
2022-11-16T23:44:57.132Z,73.00
2022-11-16T23:48:03.025Z,68.33
2022-11-16T23:51:07.134Z,69.00
2022-11-16T23:54:11.633Z,69.67
2022-11-16T23:57:16.053Z,64.00
